Time;durP1;ratioP1;P1;durP2;ratioP2;P2;SDS_P1;SDS_P2;PMS_P1;PMS_P2;Temp;Humidity;BMP_temperature;BMP_pressure;BME280_temperature;BME280_humidity;BME280_pressure;Samples;Min_cycle;Max_cycle;Signal;HPM_P1;HPM_P2
2022/12/29 00:00:06;;;;;;;3.47;3.20;;;11.90;87.90;;;14.27;62.58;99979.84;5030107;28;20206;-55
2022/12/29 00:02:33;;;;;;;3.30;3.00;;;11.90;87.70;;;14.22;62.95;99973.56;5036625;28;20199;-55
2022/12/29 00:05:01;;;;;;;3.40;3.10;;;11.90;87.50;;;14.20;62.83;99973.78;5036496;28;20205;-52
2022/12/29 00:07:28;;;;;;;2.83;2.63;;;11.90;87.50;;;14.16;63.08;99974.44;5036327;28;20202;-55
2022/12/29 00:09:55;;;;;;;3.17;2.87;;;11.90;87.50;;;14.20;63.08;99954.44;5036331;28;20696;-53
2022/12/29 00:12:22;;;;;;;3.33;3.03;;;12.00;87.40;;;14.18;62.93;99962.63;5036341;28;20197;-55
2022/12/29 00:17:34;;;;;;;2.93;2.47;;;12.00;87.40;;;14.26;62.75;99962.31;5016670;28;20198;-55
2022/12/29 00:36:45;;;;;;;4.00;3.60;;;12.10;87.80;;;14.42;63.10;99931.88;5036085;28;20534;-54
2022/12/29 00:44:04;;;;;;;4.10;3.80;;;12.20;87.80;;;14.43;62.89;99917.59;5036791;28;20194;-55
2022/12/29 00:45:07;;;;;;;4.47;4.17;;;12.20;87.90;;;14.36;63.60;99926.66;5035727;28;20643;-55
2022/12/29 00:47:34;;;;;;;4.23;3.93;;;12.20;87.90;;;14.50;62.99;99923.63;5032294;28;20242;-55
2022/12/29 00:50:01;;;;;;;5.07;4.67;;;12.20;87.90;;;14.51;63.14;99930.56;5035405;28;20256;-55
2022/12/29 00:52:30;;;;;;;4.30;4.00;;;12.20;88.00;;;14.54;63.20;99913.44;5035501;28;20194;-55
2022/12/29 00:54:57;;;;;;;5.13;4.37;;;12.30;88.20;;;14.58;63.21;99926.00;5034451;28;20559;-55
2022/12/29 00:57:24;;;;;;;4.87;4.57;;;12.30;88.20;;;14.55;63.56;99926.44;5037607;28;20198;-54
2022/12/29 00:59:51;;;;;;;4.53;4.13;;;12.30;88.40;;;14.50;64.10;99910.41;5040030;28;20248;-54
2022/12/29 01:02:18;;;;;;;4.77;4.47;;;12.30;88.60;;;14.47;64.37;99907.38;5042912;28;20202;-54
2022/12/29 01:04:45;;;;;;;4.23;3.90;;;12.20;88.60;;;14.58;63.70;99907.47;5037579;28;20258;-53
2022/12/29 01:07:12;;;;;;;4.87;4.57;;;12.30;88.60;;;14.54;63.78;99906.28;5019923;28;20202;-55
2022/12/29 01:12:41;;;;;;;4.43;4.03;;;12.30;88.50;;;14.72;63.30;99906.28;5019650;28;20625;-55
2022/12/29 01:15:13;;;;;;;4.50;4.10;;;12.30;88.40;;;14.71;63.00;99894.06;5019369;28;20191;-55
2022/12/29 01:17:40;;;;;;;4.77;4.37;;;12.30;88.20;;;14.61;63.18;99893.78;5019494;28;20187;-55
2022/12/29 01:20:10;;;;;;;4.20;3.90;;;12.30;87.90;;;14.76;62.77;99896.84;5031237;28;20663;-55
2022/12/29 01:22:37;;;;;;;4.10;3.80;;;12.40;87.90;;;14.74;62.86;99888.31;5039218;28;20655;-56
2022/12/29 01:25:07;;;;;;;3.83;3.53;;;12.40;87.80;;;14.80;62.43;99881.34;5036046;28;20189;-54
2022/12/29 01:27:34;;;;;;;3.57;3.30;;;12.40;87.70;;;14.71;62.75;99896.69;5039391;28;20203;-56
2022/12/29 01:30:01;;;;;;;4.33;4.03;;;12.40;87.60;;;14.77;62.50;99887.88;5039796;28;20214;-56
2022/12/29 01:32:28;;;;;;;3.80;3.53;;;12.40;87.40;;;14.82;62.16;99884.56;5042491;28;20559;-55
2022/12/29 01:34:55;;;;;;;3.30;3.00;;;12.40;87.40;;;14.91;62.30;99873.44;5043104;28;20255;-55
2022/12/29 01:37:22;;;;;;;3.60;3.30;;;12.50;87.40;;;14.86;62.15;99881.25;5041141;28;20202;-56
2022/12/29 01:39:49;;;;;;;3.00;2.80;;;12.50;87.30;;;14.83;62.58;99871.09;5041706;28;20241;-55
2022/12/29 01:42:24;;;;;;;4.10;3.80;;;12.50;87.20;;;14.86;62.41;99861.88;5041615;28;20187;-54
2022/12/29 01:44:55;;;;;;;4.27;3.87;;;12.60;87.20;;;14.85;62.59;99870.88;5041453;28;20179;-55
2022/12/29 01:47:38;;;;;;;4.00;3.63;;;12.60;87.10;;;14.83;62.35;99865.00;5043349;28;20198;-56
2022/12/29 01:50:11;;;;;;;3.93;3.67;;;12.60;87.00;;;14.88;62.42;99857.97;5040501;28;20218;-56
2022/12/29 01:52:49;;;;;;;4.23;3.83;;;12.60;87.00;;;14.75;62.47;99860.81;5035134;28;20190;-55
2022/12/29 01:55:17;;;;;;;4.70;3.63;;;12.50;87.00;;;14.85;62.49;99863.75;5022689;28;20191;-55
2022/12/29 01:57:50;;;;;;;3.57;3.27;;;12.60;86.90;;;14.84;62.29;99842.75;5018731;28;20282;-55
2022/12/29 02:00:17;;;;;;;3.47;3.23;;;12.60;86.80;;;14.91;62.12;99856.72;5019015;28;20234;-54
2022/12/29 02:02:50;;;;;;;3.67;3.47;;;12.70;86.80;;;14.95;62.02;99841.19;5019289;28;20188;-55
2022/12/29 02:05:27;;;;;;;3.37;3.17;;;12.70;86.60;;;14.99;61.91;99829.91;5019716;28;20723;-54
2022/12/29 02:07:54;;;;;;;3.63;3.33;;;12.70;86.50;;;15.07;61.67;99839.41;5021116;28;20185;-54
2022/12/29 02:10:25;;;;;;;3.90;3.60;;;12.70;86.30;;;15.09;61.50;99845.28;5017181;28;20226;-55
2022/12/29 02:12:54;;;;;;;4.03;3.60;;;12.70;86.20;;;15.04;61.64;99829.25;5018501;28;20187;-55
2022/12/29 02:15:41;;;;;;;3.43;3.13;;;12.70;86.20;;;14.89;62.05;99838.41;5024649;28;20202;-56
2022/12/29 02:18:25;;;;;;;3.67;3.33;;;12.70;86.10;;;15.00;61.63;99838.69;5025046;28;20222;-55
2022/12/29 02:21:46;;;;;;;3.10;2.90;;;12.70;86.10;;;15.06;61.38;99829.81;5020692;28;20222;-54
2022/12/29 02:25:05;;;;;;;3.80;3.50;;;12.80;85.90;;;15.07;61.40;99823.50;5018190;28;20559;-55
2022/12/29 02:27:55;;;;;;;4.13;3.73;;;12.80;85.80;;;15.04;61.41;99830.06;5017721;28;20195;-55
2022/12/29 02:30:42;;;;;;;3.70;3.50;;;12.80;85.70;;;15.02;61.46;99815.41;5016661;28;20200;-55
2022/12/29 02:33:27;;;;;;;3.03;2.83;;;12.80;85.50;;;14.96;61.67;99819.75;5017705;28;20555;-56
2022/12/29 02:36:05;;;;;;;3.70;3.40;;;12.80;85.50;;;15.08;61.45;99825.09;5016342;28;20218;-56
2022/12/29 02:38:56;;;;;;;3.37;3.07;;;12.90;85.50;;;15.10;61.20;99812.41;5017176;28;20209;-55
2022/12/29 02:41:31;;;;;;;3.60;3.30;;;12.80;85.40;;;15.18;60.99;99815.56;5016896;28;20208;-56
2022/12/29 02:44:12;;;;;;;3.40;3.20;;;12.90;85.30;;;15.07;61.27;99804.94;5016657;28;20265;-55
2022/12/29 02:46:49;;;;;;;3.47;3.27;;;12.80;85.20;;;15.03;61.43;99795.81;5016081;28;20233;-55
2022/12/29 02:49:26;;;;;;;2.90;2.70;;;12.90;85.30;;;15.10;61.20;99801.81;5030348;28;20214;-55
2022/12/29 02:52:02;;;;;;;3.63;3.33;;;12.90;85.20;;;15.13;61.33;99806.69;5040450;28;20190;-53
2022/12/29 02:54:42;;;;;;;3.10;2.90;;;12.90;86.00;;;15.22;61.19;99805.31;5039647;28;20538;-55
2022/12/29 02:57:28;;;;;;;3.27;3.07;;;12.90;85.10;;;15.22;60.86;99798.16;5038320;28;20212;-54
2022/12/29 03:00:01;;;;;;;3.47;3.20;;;12.90;85.10;;;15.24;60.89;99797.94;5037610;28;20215;-55
2022/12/29 03:03:08;;;;;;;3.00;2.80;;;12.90;85.10;;;15.26;60.62;99801.19;5036122;28;20515;-52
2022/12/29 03:05:55;;;;;;;2.80;2.60;;;13.00;85.30;;;15.24;60.50;99789.97;5035854;28;20202;-55
2022/12/29 03:08:35;;;;;;;4.20;2.97;;;13.00;85.20;;;15.20;60.79;99786.16;5035571;28;20252;-55
2022/12/29 03:11:05;;;;;;;3.20;3.00;;;12.90;85.10;;;15.19;61.38;99784.56;5035812;28;20194;-62
2022/12/29 03:16:44;;;;;;;3.47;2.93;;;13.00;85.20;;;15.19;61.23;99773.97;5035534;28;20198;-54
2022/12/29 03:19:20;;;;;;;2.67;2.50;;;13.00;85.10;;;15.23;60.90;99764.53;5038873;28;20210;-55
2022/12/29 03:24:47;;;;;;;2.60;2.30;;;13.10;85.10;;;15.28;60.58;99767.28;5038485;28;20516;-56
2022/12/29 03:27:23;;;;;;;1.80;1.70;;;13.00;85.10;;;15.28;60.56;99768.09;5039523;28;20547;-55
2022/12/29 03:29:56;;;;;;;2.47;2.27;;;13.00;85.10;;;15.23;60.92;99751.25;5035223;28;20288;-55
2022/12/29 03:32:31;;;;;;;1.80;1.70;;;13.00;85.10;;;15.33;60.75;99757.59;5038173;28;20182;-55
2022/12/29 03:35:01;;;;;;;1.70;1.60;;;13.10;85.00;;;15.38;60.53;99752.41;5038072;28;20178;-54
2022/12/29 03:37:36;;;;;;;1.60;1.50;;;13.10;85.00;;;15.34;60.78;99755.75;5038558;28;20222;-54
2022/12/29 03:40:05;;;;;;;1.50;1.40;;;13.10;85.00;;;15.19;61.54;99744.81;5038229;28;20284;-55
2022/12/29 03:42:36;;;;;;;2.53;1.60;;;13.00;85.30;;;15.16;61.47;99738.13;5038069;28;20539;-55
2022/12/29 03:45:06;;;;;;;1.50;1.40;;;13.00;85.60;;;15.20;61.71;99738.47;5038538;28;20209;-56
2022/12/29 03:47:33;;;;;;;1.70;1.60;;;13.00;85.70;;;15.30;61.34;99738.72;5018712;28;20266;-56
2022/12/29 03:50:02;;;;;;;1.70;1.60;;;13.10;85.90;;;15.28;61.83;99730.19;5041451;28;20210;-52
2022/12/29 03:52:29;;;;;;;1.60;1.50;;;13.10;86.20;;;15.38;61.56;99747.13;5048834;28;20274;-54
2022/12/29 03:54:56;;;;;;;1.80;1.70;;;13.10;86.20;;;15.35;62.30;99747.59;5047439;28;20195;-55
2022/12/29 03:57:23;;;;;;;1.70;1.60;;;13.10;86.80;;;15.21;63.06;99743.56;5041085;28;20194;-55
2022/12/29 03:59:49;;;;;;;1.30;1.30;;;13.00;87.40;;;15.21;62.73;99735.59;5039314;28;20210;-55
2022/12/29 04:02:16;;;;;;;1.87;1.77;;;13.00;87.40;;;15.21;63.14;99729.47;5036339;28;20195;-51
2022/12/29 04:04:44;;;;;;;1.73;1.63;;;13.00;87.80;;;15.13;63.72;99721.84;5036765;28;20227;-55
2022/12/29 04:07:12;;;;;;;1.90;1.80;;;13.00;88.20;;;15.01;64.53;99723.69;5036250;28;20195;-54
2022/12/29 04:09:39;;;;;;;2.07;1.97;;;12.90;88.90;;;14.87;65.42;99726.53;5036041;28;20226;-53
2022/12/29 04:12:06;;;;;;;1.90;1.80;;;12.90;89.60;;;14.85;65.61;99727.81;5035877;28;20691;-52
2022/12/29 04:14:33;;;;;;;2.13;1.90;;;12.90;90.00;;;14.77;65.94;99733.41;5023811;28;20274;-53
2022/12/29 04:17:00;;;;;;;2.17;2.07;;;12.80;90.20;;;14.77;66.09;99731.59;5016868;28;20195;-51
2022/12/29 04:19:27;;;;;;;2.23;2.13;;;12.80;90.30;;;14.72;66.64;99712.91;5015918;28;20229;-53
2022/12/29 04:21:54;;;;;;;2.13;2.03;;;12.70;90.40;;;14.76;66.37;99714.06;5016167;28;20211;-53
2022/12/29 04:24:22;;;;;;;2.20;2.10;;;12.70;90.40;;;14.76;66.14;99706.13;5016861;28;20195;-55
2022/12/29 04:26:49;;;;;;;2.00;1.90;;;12.70;90.50;;;14.74;66.43;99713.47;5016413;28;20595;-56
2022/12/29 04:29:16;;;;;;;2.13;2.03;;;12.70;90.50;;;14.75;66.33;99704.53;5014587;28;20215;-53
2022/12/29 04:31:43;;;;;;;2.30;2.10;;;12.70;90.50;;;14.81;66.24;99713.38;5016395;28;20656;-53
2022/12/29 04:34:10;;;;;;;2.37;2.27;;;12.70;90.50;;;14.84;66.06;99708.44;5016237;28;20187;-53
2022/12/29 04:36:39;;;;;;;2.90;2.10;;;12.70;90.50;;;14.88;66.08;99714.91;5015908;28;20195;-55
2022/12/29 04:39:07;;;;;;;2.10;2.00;;;12.70;90.40;;;14.87;65.54;99709.84;5016341;28;20207;-55
2022/12/29 04:41:35;;;;;;;2.10;2.00;;;12.70;90.30;;;14.86;65.73;99710.84;5033276;28;20206;-54
2022/12/29 04:44:03;;;;;;;3.40;2.20;;;12.70;90.20;;;14.67;65.97;99707.47;5035818;28;20659;-52
2022/12/29 04:46:30;;;;;;;2.30;2.10;;;12.60;90.20;;;14.72;65.79;99720.84;5035697;28;20281;-52
2022/12/29 04:48:57;;;;;;;2.10;2.00;;;12.70;90.20;;;14.73;65.89;99725.13;5035565;28;20297;-52
2022/12/29 04:51:24;;;;;;;2.07;1.97;;;12.70;90.10;;;14.90;65.51;99723.41;5035654;28;20198;-54
2022/12/29 04:53:51;;;;;;;2.47;2.37;;;12.70;90.00;;;15.00;64.70;99728.16;5035373;28;20201;-53
2022/12/29 04:56:17;;;;;;;3.27;2.23;;;12.80;89.80;;;15.13;64.23;99716.56;5035742;28;20198;-55
2022/12/29 04:58:46;;;;;;;2.23;1.93;;;12.80;89.50;;;15.28;63.46;99715.09;5035009;28;20305;-52
2022/12/29 05:01:13;;;;;;;3.30;2.50;;;12.80;89.40;;;15.33;63.07;99722.34;5034529;28;20250;-53
2022/12/29 05:03:40;;;;;;;2.20;2.00;;;12.90;89.00;;;15.29;62.86;99716.69;5035476;28;20242;-53
2022/12/29 05:06:07;;;;;;;2.13;2.00;;;12.90;88.40;;;15.37;62.77;99718.19;5035132;28;20202;-56
2022/12/29 05:08:34;;;;;;;1.63;1.53;;;13.00;88.30;;;15.39;62.62;99724.06;5020700;28;20199;-55
2022/12/29 05:11:01;;;;;;;2.10;2.00;;;13.00;88.00;;;15.42;62.61;99720.97;5015235;28;20194;-56
2022/12/29 05:13:28;;;;;;;2.63;1.80;;;13.00;88.30;;;15.36;62.95;99721.88;5015508;28;20199;-53
2022/12/29 05:15:56;;;;;;;1.93;1.83;;;13.00;88.50;;;15.30;63.67;99723.59;5015596;28;20191;-54
2022/12/29 05:18:23;;;;;;;1.70;1.60;;;13.00;88.70;;;15.20;63.92;99704.81;5014922;28;20200;-53
2022/12/29 05:20:50;;;;;;;2.17;2.07;;;13.00;88.90;;;15.16;64.05;99714.25;5017637;28;20215;-54
2022/12/29 05:23:17;;;;;;;2.20;1.90;;;12.90;88.90;;;15.20;63.59;99725.19;5035114;28;20248;-54
2022/12/29 05:25:47;;;;;;;2.13;1.40;;;12.90;89.00;;;15.13;63.92;99727.16;5034764;28;20197;-53
2022/12/29 05:28:14;;;;;;;1.63;1.30;;;12.90;89.20;;;15.05;64.32;99714.25;5034898;28;20201;-54
2022/12/29 05:30:41;;;;;;;0.80;0.80;;;12.80;89.40;;;15.02;64.34;99714.72;5034574;28;20206;-51
2022/12/29 05:33:11;;;;;;;1.87;1.20;;;12.80;89.50;;;14.96;64.10;99726.19;5034870;28;20191;-52
2022/12/29 05:35:38;;;;;;;0.80;0.80;;;12.70;89.80;;;14.93;64.30;99728.28;5034255;28;20190;-53
2022/12/29 05:38:05;;;;;;;1.20;0.87;;;12.60;89.80;;;14.91;64.33;99746.25;5033948;28;20199;-56
2022/12/29 05:40:32;;;;;;;0.90;0.90;;;12.50;90.10;;;14.93;63.78;99733.56;5033975;28;20214;-53
2022/12/29 05:42:59;;;;;;;0.63;0.63;;;12.50;90.20;;;14.95;64.36;99741.31;5034488;28;20195;-53
2022/12/29 05:45:26;;;;;;;1.33;1.00;;;12.40;90.30;;;14.97;64.22;99739.25;5034499;28;20212;-56
2022/12/29 05:47:53;;;;;;;1.10;1.00;;;12.40;90.40;;;14.97;64.77;99741.88;5034351;28;20191;-53
2022/12/29 05:50:21;;;;;;;2.30;1.10;;;12.40;90.60;;;14.95;64.69;99740.50;5034163;28;20581;-55
2022/12/29 05:52:48;;;;;;;1.60;1.50;;;12.40;90.50;;;15.01;64.61;99728.97;5034127;28;20191;-56
2022/12/29 05:55:15;;;;;;;1.77;1.40;;;12.40;90.60;;;15.06;64.05;99723.81;5034436;28;20578;-56
2022/12/29 05:57:42;;;;;;;2.03;1.80;;;12.40;90.60;;;15.03;64.36;99724.25;5038825;28;20286;-56
2022/12/29 06:00:11;;;;;;;2.40;2.30;;;12.50;90.60;;;15.04;64.65;99728.53;5038214;28;20277;-56
2022/12/29 06:02:38;;;;;;;2.33;2.20;;;12.50;90.60;;;15.04;64.68;99720.59;5038570;28;20703;-55
2022/12/29 06:05:06;;;;;;;2.07;1.93;;;12.50;90.60;;;15.06;64.55;99726.44;5041508;28;20213;-55
2022/12/29 06:07:34;;;;;;;2.47;2.27;;;12.50;90.60;;;15.05;64.50;99719.56;5036592;28;20194;-55
2022/12/29 06:10:01;;;;;;;2.63;1.70;;;12.50;90.50;;;15.04;64.72;99708.16;5037268;28;20715;-57
2022/12/29 06:12:29;;;;;;;3.27;1.80;;;12.50;90.50;;;15.13;64.34;99716.56;5017301;28;20600;-56
2022/12/29 06:14:56;;;;;;;1.83;1.40;;;12.60;90.50;;;15.15;63.82;99709.19;5017108;28;20192;-54
2022/12/29 06:17:23;;;;;;;2.33;1.33;;;12.60;90.50;;;15.20;64.07;99701.34;5015738;28;20187;-56
2022/12/29 06:19:50;;;;;;;1.93;1.80;;;12.60;90.40;;;15.27;63.95;99704.69;5014777;28;20211;-54
2022/12/29 06:22:17;;;;;;;1.67;1.57;;;12.70;90.40;;;15.37;63.73;99692.47;5015145;28;20552;-55
2022/12/29 06:24:45;;;;;;;2.13;1.40;;;12.70;90.30;;;15.44;63.66;99703.81;5015175;28;20221;-56
2022/12/29 06:27:13;;;;;;;1.53;1.43;;;12.70;90.30;;;15.48;63.22;99699.66;5016583;28;20290;-54
2022/12/29 06:29:40;;;;;;;1.83;1.73;;;12.70;90.30;;;15.52;63.09;99695.47;5020663;28;20672;-55
2022/12/29 06:32:07;;;;;;;2.27;1.80;;;12.80;90.20;;;15.45;63.05;99699.31;5022433;28;20274;-56
2022/12/29 06:34:34;;;;;;;1.53;1.43;;;12.80;89.90;;;15.38;63.33;99693.28;5015736;28;20198;-56
2022/12/29 06:37:02;;;;;;;1.50;1.40;;;12.80;89.50;;;15.28;63.25;99703.66;5016387;28;20203;-56
2022/12/29 06:39:29;;;;;;;3.13;1.63;;;12.80;89.40;;;15.30;63.54;99706.88;5016301;28;20296;-54
2022/12/29 06:41:57;;;;;;;1.57;1.20;;;12.80;89.30;;;15.35;63.27;99709.66;5013444;28;20627;-53
2022/12/29 06:44:24;;;;;;;2.30;1.30;;;12.90;89.40;;;15.30;63.27;99713.00;5014338;28;20195;-56
2022/12/29 06:46:51;;;;;;;2.20;1.40;;;12.80;89.30;;;15.14;63.72;99712.88;5014865;28;20191;-56
2022/12/29 06:49:18;;;;;;;1.43;1.30;;;12.80;89.20;;;15.20;63.70;99725.19;5027803;28;20224;-53
2022/12/29 06:51:45;;;;;;;1.93;1.40;;;12.80;89.10;;;15.27;63.46;99733.84;5032590;28;20201;-56
2022/12/29 06:54:12;;;;;;;1.50;1.40;;;12.80;89.30;;;15.33;63.36;99748.84;5033259;28;20186;-53
2022/12/29 06:56:40;;;;;;;2.73;1.57;;;12.80;89.50;;;15.36;63.31;99761.63;5030715;28;20605;-54
2022/12/29 06:59:09;;;;;;;3.40;1.33;;;12.80;89.50;;;15.37;63.24;99771.22;5015023;28;20221;-54
2022/12/29 07:01:36;;;;;;;2.53;1.43;;;12.80;89.70;;;15.39;63.30;99755.88;5032458;28;20296;-54
2022/12/29 07:04:04;;;;;;;3.97;1.60;;;12.80;89.80;;;15.30;64.02;99759.91;5033003;28;20191;-53
2022/12/29 07:06:31;;;;;;;1.50;1.40;;;12.80;90.20;;;15.18;64.38;99745.84;5032742;28;20194;-52
2022/12/29 07:08:58;;;;;;;2.67;1.77;;;12.80;90.20;;;15.10;64.43;99749.63;5032647;28;20214;-52
2022/12/29 07:11:25;;;;;;;1.83;1.43;;;12.70;90.10;;;15.12;64.30;99744.13;5021704;28;20195;-54
2022/12/29 07:13:52;;;;;;;1.70;1.60;;;12.70;90.20;;;15.08;64.60;99740.28;5013248;28;20274;-55
2022/12/29 07:16:20;;;;;;;1.93;1.40;;;12.60;90.20;;;14.96;64.70;99742.09;5013390;28;20209;-55
2022/12/29 07:18:47;;;;;;;1.90;1.70;;;12.70;90.20;;;14.88;65.09;99744.03;5012900;28;20219;-56
2022/12/29 07:21:14;;;;;;;1.90;1.47;;;12.60;90.10;;;14.79;64.85;99749.88;5013604;28;20211;-52
2022/12/29 07:23:41;;;;;;;2.00;1.67;;;12.60;90.10;;;14.72;65.07;99749.19;5013473;28;20660;-55
2022/12/29 07:26:13;;;;;;;1.93;1.60;;;12.60;90.00;;;14.74;64.63;99745.28;5013120;28;20274;-54
2022/12/29 07:28:41;;;;;;;4.43;1.23;;;12.50;89.60;;;14.72;64.36;99754.47;5012980;28;20236;-54
2022/12/29 07:31:16;;;;;;;2.07;1.40;;;12.50;89.30;;;14.69;63.91;99762.91;5013487;28;20198;-55
2022/12/29 07:33:45;;;;;;;3.47;1.17;;;12.40;89.00;;;14.70;63.85;99773.25;5013223;28;20178;-52
2022/12/29 07:36:13;;;;;;;2.73;1.20;;;12.40;88.80;;;14.68;63.66;99777.97;5013345;28;20192;-54
2022/12/29 07:38:41;;;;;;;3.40;1.30;;;12.40;88.80;;;14.63;63.89;99777.84;5013411;28;20223;-53
2022/12/29 07:41:08;;;;;;;2.67;1.30;;;12.40;88.80;;;14.61;63.81;99774.59;5013344;28;20200;-52
2022/12/29 07:43:36;;;;;;;3.30;1.13;;;12.40;88.70;;;14.68;63.79;99782.47;5013972;28;20235;-55
2022/12/29 07:46:04;;;;;;;1.67;1.13;;;12.40;88.80;;;14.71;63.33;99782.81;5014916;28;20222;-52
2022/12/29 07:48:33;;;;;;;3.73;1.47;;;12.40;88.70;;;14.58;63.34;99798.88;5027326;28;20202;-52
2022/12/29 07:51:02;;;;;;;2.00;1.10;;;12.30;88.30;;;14.59;63.30;99783.81;5033770;28;20195;-54
2022/12/29 07:53:28;;;;;;;1.80;1.00;;;12.30;88.30;;;14.46;63.80;99795.38;5032731;28;20206;-53
2022/12/29 07:55:56;;;;;;;1.50;1.07;;;12.30;88.00;;;14.55;63.54;99796.66;5033120;28;20265;-54
2022/12/29 07:58:23;;;;;;;1.97;1.23;;;12.40;88.20;;;14.65;63.11;99802.25;5032256;28;20932;-56
2022/12/29 08:00:53;;;;;;;1.40;0.87;;;12.40;88.00;;;14.73;62.91;99799.31;5031988;28;20197;-55
2022/12/29 08:03:21;;;;;;;1.63;1.30;;;12.40;87.90;;;14.73;62.50;99799.31;5034024;28;20589;-56
2022/12/29 08:05:48;;;;;;;2.17;1.00;;;12.40;87.40;;;14.75;62.25;99799.06;5028469;28;20195;-55
2022/12/29 08:08:16;;;;;;;2.97;1.00;;;12.40;87.00;;;14.79;62.20;99814.28;5015061;28;20214;-54
2022/12/29 08:10:43;;;;;;;1.07;0.90;;;12.40;87.00;;;14.81;61.72;99806.91;5016429;28;20221;-53
2022/12/29 08:13:12;;;;;;;1.77;1.13;;;12.40;86.50;;;14.79;61.21;99819.59;5015896;28;20195;-56
2022/12/29 08:15:39;;;;;;;2.27;0.93;;;12.40;85.80;;;14.82;60.88;99813.03;5016426;28;20531;-53
2022/12/29 08:18:06;;;;;;;3.67;0.97;;;12.40;85.80;;;14.87;61.18;99824.59;5016211;28;20249;-54
2022/12/29 08:20:33;;;;;;;8.10;1.50;;;12.40;85.70;;;14.88;60.36;99815.59;5032480;28;20223;-56
2022/12/29 08:22:59;;;;;;;3.23;1.40;;;12.40;85.10;;;14.80;60.28;99818.56;5036126;28;20226;-53
2022/12/29 08:25:28;;;;;;;2.43;1.00;;;12.40;84.60;;;14.77;60.04;99819.00;5035779;28;20201;-55
2022/12/29 08:27:55;;;;;;;3.30;1.27;;;12.40;84.00;;;14.80;59.87;99834.47;5035533;28;20201;-55
2022/12/29 08:30:21;;;;;;;6.63;1.53;;;12.40;83.90;;;14.80;59.50;99839.75;5035475;28;20244;-55
2022/12/29 08:32:49;;;;;;;3.97;1.17;;;12.40;83.50;;;14.84;59.73;99837.47;5034687;28;20183;-53
2022/12/29 08:35:16;;;;;;;3.37;1.00;;;12.50;83.60;;;14.87;59.13;99840.47;5036000;28;20200;-53
2022/12/29 08:37:43;;;;;;;4.20;1.10;;;12.50;83.20;;;14.78;59.24;99848.97;5036083;28;20215;-52
2022/12/29 08:40:10;;;;;;;1.83;0.90;;;12.50;82.70;;;14.79;59.48;99851.38;5035268;28;20237;-53
2022/12/29 08:42:39;;;;;;;6.30;1.30;;;12.50;82.70;;;14.85;59.04;99849.69;5037635;28;20614;-54
2022/12/29 08:45:08;;;;;;;3.27;1.20;;;12.50;82.90;;;14.89;59.03;99846.34;5037611;28;20560;-53
2022/12/29 08:47:35;;;;;;;4.57;1.47;;;12.50;82.80;;;14.97;58.36;99863.78;5037153;28;20198;-55
2022/12/29 08:50:03;;;;;;;4.43;1.07;;;12.50;82.80;;;14.99;58.27;99858.25;5039849;28;20228;-55
2022/12/29 08:52:30;;;;;;;3.43;1.80;;;12.50;82.00;;;14.93;58.42;99864.47;5038822;28;20636;-55
2022/12/29 08:54:57;;;;;;;4.70;1.27;;;12.50;81.80;;;15.05;58.34;99867.97;5035813;28;20213;-55
2022/12/29 08:57:24;;;;;;;2.73;0.90;;;12.60;82.10;;;15.21;58.20;99857.53;5035348;28;20186;-54
2022/12/29 08:59:52;;;;;;;3.57;1.43;;;12.60;82.30;;;15.34;57.58;99872.44;5033949;28;20212;-54
2022/12/29 09:02:19;;;;;;;4.93;1.30;;;12.70;81.70;;;15.33;56.92;99876.13;5034868;28;20211;-55
2022/12/29 09:04:51;;;;;;;3.27;1.50;;;12.70;81.20;;;15.24;56.59;99866.84;5035675;28;20579;-54
2022/12/29 09:07:18;;;;;;;4.13;1.37;;;12.70;80.60;;;15.32;57.11;99871.84;5034738;28;20659;-55
2022/12/29 09:09:45;;;;;;;4.93;1.40;;;12.80;81.00;;;15.30;56.68;99861.47;5034488;28;20203;-53
2022/12/29 09:12:12;;;;;;;3.47;1.47;;;12.80;80.50;;;15.32;56.78;99863.91;5034319;28;20648;-53
2022/12/29 09:14:39;;;;;;;5.00;2.07;;;12.80;80.20;;;15.39;56.45;99859.31;5022905;28;20257;-53
2022/12/29 09:19:53;;;;;;;2.30;1.10;;;12.80;80.20;;;15.52;55.89;99880.38;5014945;28;20273;-54
2022/12/29 09:22:20;;;;;;;4.17;1.50;;;12.90;80.10;;;15.55;56.10;99885.19;5014643;28;20211;-53
2022/12/29 09:24:47;;;;;;;5.30;1.37;;;12.90;79.70;;;15.51;55.93;99897.31;5014556;28;20214;-52
2022/12/29 09:27:14;;;;;;;4.97;1.60;;;12.90;79.70;;;15.33;55.33;99887.53;5014876;28;20195;-56
2022/12/29 09:29:41;;;;;;;3.77;1.47;;;12.80;78.60;;;15.32;55.36;99879.81;5013473;28;20313;-57
2022/12/29 09:32:09;;;;;;;5.13;1.50;;;12.90;78.40;;;15.43;55.53;99871.88;5015111;28;20187;-55
2022/12/29 09:34:43;;;;;;;2.57;1.13;;;12.90;79.40;;;15.38;54.98;99868.31;5014901;28;20182;-54
2022/12/29 09:37:09;;;;;;;3.10;1.30;;;12.80;77.80;;;15.43;54.87;99886.97;5014061;28;20233;-53
2022/12/29 09:39:36;;;;;;;4.60;1.83;;;12.90;78.00;;;15.53;54.02;99874.00;5014524;28;20379;-52
2022/12/29 09:42:13;;;;;;;5.60;1.90;;;12.90;77.70;;;15.65;54.69;99879.31;5014610;28;20219;-52
2022/12/29 09:44:54;;;;;;;5.73;1.57;;;13.00;77.90;;;15.72;53.94;99875.53;5014515;28;20619;-54
2022/12/29 09:47:25;;;;;;;3.50;1.57;;;13.00;77.70;;;15.63;53.74;99884.88;5025443;28;20198;-54
2022/12/29 09:49:58;;;;;;;4.87;1.40;;;13.10;76.60;;;15.69;53.96;99877.84;5032694;28;20221;-56
2022/12/29 09:52:31;;;;;;;5.07;1.77;;;13.10;76.90;;;15.71;53.49;99887.19;5034225;28;20240;-53
2022/12/29 09:55:03;;;;;;;5.23;1.10;;;13.10;76.60;;;15.67;53.74;99888.69;5033772;28;20189;-55
2022/12/29 09:57:46;;;;;;;4.03;2.03;;;13.10;76.50;;;15.60;53.63;99880.00;5034286;28;20179;-53
2022/12/29 10:00:18;;;;;;;4.23;1.30;;;13.10;76.20;;;15.61;53.58;99894.09;5033687;28;20570;-54
2022/12/29 10:02:52;;;;;;;5.73;1.43;;;13.10;76.10;;;15.66;53.63;99902.19;5028739;28;20703;-55
2022/12/29 10:05:35;;;;;;;6.63;1.37;;;13.10;76.40;;;15.71;54.03;99886.38;5014526;28;20191;-56
2022/12/29 10:08:32;;;;;;;2.73;1.33;;;13.20;77.00;;;15.80;54.10;99891.13;5023826;28;20647;-53
2022/12/29 10:11:14;;;;;;;4.60;1.60;;;13.20;77.10;;;15.89;53.29;99873.00;5033977;28;20179;-56
2022/12/29 10:14:07;;;;;;;2.27;1.20;;;13.30;76.20;;;15.56;52.98;99871.72;5033927;28;20197;-55
2022/12/29 10:16:55;;;;;;;3.43;1.17;;;13.20;75.10;;;15.65;53.50;99872.19;5033641;28;20274;-55
2022/12/29 10:19:49;;;;;;;2.50;0.90;;;13.30;75.60;;;15.66;53.15;99879.13;5021341;28;20212;-55
2022/12/29 10:22:37;;;;;;;3.70;1.10;;;13.20;75.10;;;15.75;53.23;99875.09;5013687;28;20211;-56
2022/12/29 10:25:16;;;;;;;3.70;1.23;;;13.20;75.60;;;15.60;52.73;99874.72;5013746;28;20258;-53
2022/12/29 10:27:47;;;;;;;3.17;1.40;;;13.10;74.50;;;15.62;53.10;99880.59;5013638;28;20642;-53
2022/12/29 10:30:15;;;;;;;3.40;1.77;;;13.20;75.00;;;15.66;52.59;99884.44;5013499;28;20211;-54
2022/12/29 10:32:50;;;;;;;3.23;1.10;;;13.20;74.60;;;15.61;52.69;99879.00;5013542;28;20202;-53
2022/12/29 10:35:21;;;;;;;3.07;0.80;;;13.10;73.80;;;15.79;52.67;99881.53;5015334;28;20594;-55
2022/12/29 10:37:59;;;;;;;2.83;1.00;;;13.20;74.30;;;15.92;51.85;99891.13;5013764;28;20660;-55
2022/12/29 10:40:32;;;;;;;2.30;1.10;;;13.20;74.20;;;15.95;51.94;99885.38;5013323;28;20210;-55
2022/12/29 10:43:05;;;;;;;1.63;0.87;;;13.20;74.10;;;15.90;51.82;99899.31;5029702;28;20218;-56
2022/12/29 10:45:33;;;;;;;1.23;1.03;;;13.20;74.00;;;15.90;52.09;99894.00;5033194;28;20202;-53
2022/12/29 10:48:06;;;;;;;1.10;0.60;;;13.20;74.30;;;15.89;52.53;99891.59;5033094;28;20195;-52
2022/12/29 10:50:34;;;;;;;1.90;0.90;;;13.30;74.90;;;15.96;52.73;99892.28;5032794;28;20210;-53
2022/12/29 10:53:05;;;;;;;2.63;1.07;;;13.30;75.30;;;15.93;52.61;99898.84;5033683;28;20191;-54
2022/12/29 10:55:37;;;;;;;1.67;0.90;;;13.30;75.60;;;16.00;52.92;99899.56;5032998;28;20218;-55
2022/12/29 10:58:12;;;;;;;2.73;0.90;;;13.30;75.80;;;15.98;53.09;99891.03;5032688;28;20217;-53
2022/12/29 11:00:39;;;;;;;2.07;1.00;;;13.30;76.00;;;15.83;53.78;99892.53;5032031;28;20232;-56
2022/12/29 11:03:48;;;;;;;1.93;1.37;;;13.30;76.20;;;15.63;54.17;99898.13;5033498;28;20681;-53
2022/12/29 11:06:25;;;;;;;4.17;1.20;;;13.30;76.50;;;15.55;54.47;99895.81;5032630;28;20293;-53
2022/12/29 11:08:57;;;;;;;2.13;1.20;;;13.20;76.80;;;15.53;54.63;99892.56;5028726;28;20284;-53